createdAt,value
2023-05-01T00:02:13.333Z,94.83
2023-05-01T00:04:39.660Z,95.14
2023-05-01T00:07:06.047Z,95.77
2023-05-01T00:09:32.561Z,96.18
2023-05-01T00:11:59.027Z,96.78
2023-05-01T00:14:25.391Z,97.34
2023-05-01T00:16:51.907Z,97.86
2023-05-01T00:19:18.291Z,98.25
2023-05-01T00:21:44.802Z,98.60
2023-05-01T00:24:11.377Z,99.12
2023-05-01T00:26:37.838Z,99.29
2023-05-01T00:29:04.226Z,99.29
2023-05-01T00:31:30.690Z,99.46
2023-05-01T00:33:57.098Z,99.44
2023-05-01T00:36:23.536Z,99.51
2023-05-01T00:38:50.044Z,100.00
2023-05-01T00:41:16.517Z,100.00
2023-05-01T00:43:42.909Z,100.00
2023-05-01T00:46:09.433Z,100.00
2023-05-01T00:48:35.842Z,100.00
2023-05-01T00:51:02.364Z,100.00
2023-05-01T00:53:28.895Z,100.00
2023-05-01T00:55:55.329Z,100.00
2023-05-01T00:58:21.712Z,100.00
2023-05-01T01:00:48.243Z,100.00
2023-05-01T01:03:14.707Z,100.00
2023-05-01T01:05:41.110Z,100.00
2023-05-01T01:08:07.662Z,100.00
2023-05-01T01:10:34.087Z,100.00
2023-05-01T01:13:00.490Z,100.00
2023-05-01T01:15:27.049Z,100.00
2023-05-01T01:17:53.719Z,100.00
2023-05-01T01:20:20.131Z,100.00
2023-05-01T01:22:46.588Z,100.00
2023-05-01T01:25:13.009Z,100.00
2023-05-01T01:27:39.504Z,100.00
2023-05-01T01:30:05.890Z,100.00
2023-05-01T01:32:32.484Z,100.00
2023-05-01T01:34:58.898Z,100.00
2023-05-01T01:37:25.311Z,100.00
2023-05-01T01:39:52.869Z,100.00
2023-05-01T01:42:19.269Z,100.00
2023-05-01T01:44:45.733Z,100.00
2023-05-01T01:47:12.225Z,100.00
2023-05-01T01:49:38.658Z,99.63
2023-05-01T01:52:05.136Z,99.26
2023-05-01T01:54:31.598Z,99.14
2023-05-01T01:56:58.072Z,99.21
2023-05-01T01:59:24.486Z,99.21
2023-05-01T02:01:50.992Z,99.05
2023-05-01T02:04:17.430Z,98.87
2023-05-01T02:06:43.974Z,99.18
2023-05-01T02:09:10.412Z,99.92
2023-05-01T02:11:36.744Z,100.00
2023-05-01T02:14:03.154Z,100.00
2023-05-01T02:16:29.626Z,100.00
2023-05-01T02:18:55.990Z,100.00
2023-05-01T02:21:22.454Z,100.00
2023-05-01T02:23:48.956Z,100.00
2023-05-01T02:26:15.436Z,100.00
2023-05-01T02:28:41.847Z,100.00
2023-05-01T02:31:08.444Z,100.00
2023-05-01T02:33:34.819Z,100.00
2023-05-01T02:36:01.280Z,100.00
2023-05-01T02:38:27.750Z,100.00
2023-05-01T02:40:54.270Z,100.00
2023-05-01T02:43:20.728Z,100.00
2023-05-01T02:45:47.257Z,100.00
2023-05-01T02:48:15.988Z,100.00
2023-05-01T02:50:40.040Z,100.00
2023-05-01T02:53:06.484Z,100.00
2023-05-01T02:55:33.293Z,100.00
2023-05-01T02:57:59.753Z,100.00
2023-05-01T03:00:26.338Z,100.00
2023-05-01T03:02:52.836Z,100.00
2023-05-01T03:05:19.254Z,100.00
2023-05-01T03:07:45.716Z,100.00
2023-05-01T03:10:12.126Z,100.00
2023-05-01T03:12:38.604Z,100.00
2023-05-01T03:15:05.180Z,100.00
2023-05-01T03:17:31.812Z,100.00
2023-05-01T03:19:58.318Z,100.00
2023-05-01T03:22:24.683Z,100.00
2023-05-01T03:24:51.081Z,100.00
2023-05-01T03:27:17.608Z,100.00
2023-05-01T03:29:45.894Z,100.00
2023-05-01T03:32:10.528Z,100.00
2023-05-01T03:34:36.865Z,100.00
2023-05-01T03:37:03.395Z,100.00
2023-05-01T03:39:29.836Z,100.00
2023-05-01T03:41:56.236Z,100.00
2023-05-01T03:44:22.803Z,100.00
2023-05-01T03:46:49.253Z,100.00
2023-05-01T03:49:15.800Z,100.00
2023-05-01T03:51:42.212Z,100.00
2023-05-01T03:54:08.768Z,100.00
2023-05-01T03:56:35.215Z,100.00
2023-05-01T03:59:01.760Z,100.00
2023-05-01T04:01:28.258Z,100.00
2023-05-01T04:03:54.855Z,100.00
2023-05-01T04:06:21.143Z,100.00
2023-05-01T04:08:47.586Z,99.93
2023-05-01T04:11:14.165Z,99.54
2023-05-01T04:13:40.598Z,99.43
2023-05-01T04:16:07.063Z,98.99
2023-05-01T04:18:33.530Z,98.55
2023-05-01T04:20:59.868Z,98.24
2023-05-01T04:23:26.390Z,98.04
2023-05-01T04:25:52.783Z,97.76
2023-05-01T04:28:19.245Z,97.10
2023-05-01T04:30:45.956Z,96.58
2023-05-01T04:33:12.408Z,95.59
2023-05-01T04:35:38.865Z,93.72
2023-05-01T04:38:05.377Z,91.88
2023-05-01T04:40:31.945Z,90.05
2023-05-01T04:42:58.478Z,88.34
2023-05-01T04:45:27.448Z,87.43
2023-05-01T04:47:53.991Z,85.69
2023-05-01T04:50:20.719Z,83.89
2023-05-01T04:52:47.204Z,82.26
2023-05-01T04:55:14.016Z,80.85
2023-05-01T04:57:40.445Z,78.65
2023-05-01T05:00:06.933Z,78.62
2023-05-01T05:02:34.393Z,76.08
2023-05-01T05:05:00.900Z,72.84
2023-05-01T05:07:27.296Z,70.92
2023-05-01T05:09:53.800Z,70.44
2023-05-01T05:12:20.184Z,70.66
2023-05-01T05:14:46.584Z,71.86
2023-05-01T05:17:13.009Z,69.90
2023-05-01T05:19:39.425Z,67.76
2023-05-01T05:22:05.865Z,63.74
2023-05-01T05:24:32.312Z,63.25
2023-05-01T05:26:58.741Z,60.75
2023-05-01T05:29:25.136Z,58.89
2023-05-01T05:31:51.619Z,58.65
2023-05-01T05:34:18.061Z,59.23
2023-05-01T05:36:46.629Z,58.33
2023-05-01T05:39:10.992Z,57.36
2023-05-01T05:41:37.378Z,56.76
2023-05-01T05:44:04.056Z,57.03
2023-05-01T05:46:30.649Z,55.36
2023-05-01T05:48:57.034Z,58.95
2023-05-01T05:51:23.474Z,60.21
2023-05-01T05:53:50.311Z,60.60
2023-05-01T05:56:16.792Z,60.06
2023-05-01T05:58:43.175Z,57.24
2023-05-01T06:01:09.641Z,56.85
2023-05-01T06:03:36.532Z,55.79
2023-05-01T06:06:02.934Z,56.20
2023-05-01T06:08:29.330Z,54.32
2023-05-01T06:10:55.704Z,54.44
2023-05-01T06:13:23.129Z,55.98
2023-05-01T06:15:49.633Z,54.05
2023-05-01T06:18:16.313Z,54.01
2023-05-01T06:20:42.660Z,53.01
2023-05-01T06:23:09.057Z,52.82
2023-05-01T06:25:35.761Z,51.90
2023-05-01T06:28:02.310Z,52.88
2023-05-01T06:30:28.760Z,53.71
2023-05-01T06:32:55.263Z,53.37
2023-05-01T06:35:21.846Z,52.40
2023-05-01T06:37:48.176Z,52.02
2023-05-01T06:40:14.637Z,50.32
2023-05-01T06:42:41.235Z,49.86
2023-05-01T06:45:07.882Z,50.42
2023-05-01T06:47:34.314Z,53.16
2023-05-01T06:50:02.826Z,53.77
2023-05-01T06:52:27.139Z,52.41
2023-05-01T06:54:54.044Z,51.92
2023-05-01T06:57:20.577Z,50.64
2023-05-01T06:59:47.047Z,51.03
2023-05-01T07:02:13.511Z,48.48
2023-05-01T07:04:39.957Z,48.97
2023-05-01T07:07:06.575Z,47.99
2023-05-01T07:09:33.028Z,50.09
2023-05-01T07:11:59.517Z,50.04
2023-05-01T07:14:25.937Z,50.35
2023-05-01T07:16:52.422Z,50.18
2023-05-01T07:19:18.786Z,50.41
2023-05-01T07:21:46.919Z,49.73
2023-05-01T07:24:11.620Z,48.16
2023-05-01T07:26:40.454Z,47.67
2023-05-01T07:29:06.867Z,47.00
2023-05-01T07:31:33.437Z,50.03
2023-05-01T07:33:59.789Z,50.58
2023-05-01T07:36:26.222Z,49.89
2023-05-01T07:38:52.635Z,50.50
2023-05-01T07:41:19.071Z,49.54
2023-05-01T07:43:45.572Z,48.56
2023-05-01T07:46:12.012Z,47.69
2023-05-01T07:48:39.174Z,47.44
2023-05-01T07:51:04.788Z,46.60
2023-05-01T07:53:31.569Z,45.86
2023-05-01T07:55:58.002Z,45.50
2023-05-01T07:58:24.411Z,43.90
2023-05-01T08:00:50.781Z,44.28
2023-05-01T08:03:17.483Z,43.56
2023-05-01T08:05:44.072Z,43.84
2023-05-01T08:08:10.458Z,44.45
2023-05-01T08:10:36.905Z,43.06
2023-05-01T08:13:03.312Z,41.90
2023-05-01T08:15:29.689Z,41.95
2023-05-01T08:17:56.149Z,41.47
2023-05-01T08:20:22.591Z,40.01
2023-05-01T08:22:48.903Z,39.11
2023-05-01T08:25:15.281Z,39.42
2023-05-01T08:27:41.707Z,39.69
2023-05-01T08:30:08.160Z,40.52
2023-05-01T08:32:34.597Z,39.88
2023-05-01T08:35:00.929Z,38.27
2023-05-01T08:37:27.389Z,39.61
2023-05-01T08:39:53.822Z,38.54
2023-05-01T08:42:20.162Z,38.20
2023-05-01T08:44:46.564Z,38.88
2023-05-01T08:47:13.046Z,40.11
2023-05-01T08:49:39.400Z,40.66
2023-05-01T08:52:05.850Z,40.21
2023-05-01T08:54:32.233Z,40.50
2023-05-01T08:56:58.660Z,40.82
2023-05-01T08:59:25.218Z,37.47
2023-05-01T09:01:53.834Z,35.89
2023-05-01T09:04:20.444Z,35.15
2023-05-01T09:06:46.853Z,36.83
2023-05-01T09:09:13.210Z,35.80
2023-05-01T09:11:39.580Z,35.97
2023-05-01T09:14:05.954Z,34.88
2023-05-01T09:16:32.336Z,36.34
2023-05-01T09:18:58.757Z,37.70
2023-05-01T09:21:25.201Z,38.50
2023-05-01T09:23:51.637Z,37.86
2023-05-01T09:26:18.187Z,36.86
2023-05-01T09:28:44.617Z,39.01
2023-05-01T09:31:10.993Z,39.08
2023-05-01T09:33:37.574Z,38.21
2023-05-01T09:36:03.993Z,38.70
2023-05-01T09:38:30.353Z,40.03
2023-05-01T09:40:57.063Z,40.82
2023-05-01T09:43:23.192Z,38.79
2023-05-01T09:45:49.656Z,37.65
2023-05-01T09:48:16.131Z,36.55
2023-05-01T09:50:42.595Z,35.60
2023-05-01T09:53:08.970Z,35.54
2023-05-01T09:55:35.492Z,36.37
2023-05-01T09:58:01.912Z,37.00
2023-05-01T10:00:28.324Z,37.81
2023-05-01T10:02:54.780Z,37.41
2023-05-01T10:05:21.265Z,36.23
2023-05-01T10:07:48.470Z,35.89
2023-05-01T10:10:14.903Z,35.19
2023-05-01T10:12:41.227Z,35.00
2023-05-01T10:15:23.280Z,34.76
2023-05-01T10:17:34.360Z,33.70
2023-05-01T10:20:00.700Z,34.21
2023-05-01T10:22:27.156Z,34.75
2023-05-01T10:24:53.526Z,35.23
2023-05-01T10:27:20.071Z,35.21
2023-05-01T10:29:46.502Z,35.60
2023-05-01T10:32:12.851Z,34.81
2023-05-01T10:34:39.258Z,34.99
2023-05-01T10:37:06.268Z,34.00
2023-05-01T10:39:32.778Z,32.83
2023-05-01T10:41:59.164Z,31.41
2023-05-01T10:44:25.447Z,31.32
2023-05-01T10:46:52.316Z,34.55
2023-05-01T10:49:18.682Z,36.09
2023-05-01T10:51:45.158Z,35.13
2023-05-01T10:54:11.561Z,34.09
2023-05-01T10:56:38.315Z,33.79
2023-05-01T10:59:04.770Z,34.17
2023-05-01T11:01:31.211Z,36.20
2023-05-01T11:03:57.547Z,35.80
2023-05-01T11:06:24.410Z,34.63
2023-05-01T11:08:50.723Z,34.95
2023-05-01T11:11:17.113Z,34.51
2023-05-01T11:13:43.538Z,33.98
2023-05-01T11:16:10.222Z,32.49
2023-05-01T11:18:36.596Z,32.28
2023-05-01T11:21:03.031Z,31.52
2023-05-01T11:23:29.417Z,31.87
2023-05-01T11:25:56.235Z,32.27
2023-05-01T11:28:22.655Z,30.66
2023-05-01T11:30:49.039Z,32.52
2023-05-01T11:33:15.499Z,32.72
2023-05-01T11:35:42.114Z,33.09
2023-05-01T11:38:08.518Z,33.09
2023-05-01T11:40:35.200Z,32.84
2023-05-01T11:43:01.369Z,32.56
2023-05-01T11:45:27.795Z,31.81
2023-05-01T11:47:54.382Z,32.43
2023-05-01T11:50:20.622Z,34.23
2023-05-01T11:52:47.032Z,34.31
2023-05-01T11:55:13.444Z,34.86
2023-05-01T11:57:39.799Z,35.99
2023-05-01T12:00:06.199Z,37.67
2023-05-01T12:02:32.724Z,38.56
2023-05-01T12:04:59.273Z,37.88
2023-05-01T12:07:25.432Z,36.59
2023-05-01T12:09:51.795Z,38.08
2023-05-01T12:12:18.193Z,38.77
2023-05-01T12:14:44.582Z,39.49
2023-05-01T12:17:11.072Z,38.02
2023-05-01T12:19:37.440Z,38.64
2023-05-01T12:22:03.817Z,40.30
2023-05-01T12:24:30.186Z,42.29
2023-05-01T12:26:56.561Z,41.55
2023-05-01T12:29:23.005Z,42.14
2023-05-01T12:31:51.870Z,42.16
2023-05-01T12:34:18.185Z,42.02
2023-05-01T12:36:44.734Z,41.67
2023-05-01T12:39:11.123Z,41.69
2023-05-01T12:41:37.497Z,41.56
2023-05-01T12:44:03.966Z,42.01
2023-05-01T12:46:30.448Z,42.24
2023-05-01T12:48:56.798Z,41.97
2023-05-01T12:51:23.189Z,41.61
2023-05-01T12:53:49.553Z,41.36
2023-05-01T12:56:15.930Z,42.44
2023-05-01T12:58:42.338Z,44.03
2023-05-01T13:01:08.773Z,44.46
2023-05-01T13:03:37.165Z,44.47
2023-05-01T13:06:01.717Z,44.65
2023-05-01T13:08:28.011Z,44.04
2023-05-01T13:10:56.869Z,44.24
2023-05-01T13:13:20.796Z,43.12
2023-05-01T13:15:49.533Z,44.77
2023-05-01T13:18:15.906Z,44.63
2023-05-01T13:20:42.357Z,42.92
2023-05-01T13:23:08.917Z,43.31
2023-05-01T13:25:35.315Z,42.18
2023-05-01T13:28:01.693Z,41.53
2023-05-01T13:30:28.139Z,41.20
2023-05-01T13:32:54.599Z,41.43
2023-05-01T13:35:20.912Z,40.98
2023-05-01T13:37:47.388Z,40.69
2023-05-01T13:40:13.801Z,40.85
2023-05-01T13:42:40.221Z,41.93
2023-05-01T13:45:06.655Z,42.37
2023-05-01T13:47:33.190Z,42.67
2023-05-01T13:49:59.822Z,43.32
2023-05-01T13:52:26.279Z,42.22
2023-05-01T13:54:52.723Z,42.83
2023-05-01T13:57:19.141Z,42.56
2023-05-01T13:59:45.646Z,42.88
2023-05-01T14:02:12.308Z,42.85
2023-05-01T14:04:38.699Z,42.61
2023-05-01T14:07:05.058Z,42.71
2023-05-01T14:09:31.451Z,42.23
2023-05-01T14:11:57.952Z,42.42
2023-05-01T14:14:24.363Z,42.63
2023-05-01T14:16:50.821Z,43.23
2023-05-01T14:19:17.237Z,43.43
2023-05-01T14:21:43.588Z,43.63
2023-05-01T14:24:10.576Z,44.14
2023-05-01T14:26:37.293Z,44.18
2023-05-01T14:29:03.393Z,43.66
2023-05-01T14:31:29.793Z,43.58
2023-05-01T14:33:56.382Z,43.79
2023-05-01T14:36:22.794Z,44.56
2023-05-01T14:38:49.192Z,43.85
2023-05-01T14:41:15.592Z,43.64
2023-05-01T14:43:42.104Z,43.01
2023-05-01T14:46:08.607Z,43.02
2023-05-01T14:48:34.958Z,43.29
2023-05-01T14:51:01.385Z,43.04
2023-05-01T14:53:27.913Z,43.57
2023-05-01T14:55:54.380Z,43.90
2023-05-01T14:58:20.798Z,42.35
2023-05-01T15:00:47.326Z,42.26
2023-05-01T15:03:13.825Z,42.58
2023-05-01T15:05:40.090Z,42.74
2023-05-01T15:08:06.512Z,43.23
2023-05-01T15:10:32.883Z,43.43
2023-05-01T15:12:59.303Z,43.62
2023-05-01T15:15:25.903Z,43.85
2023-05-01T15:17:52.300Z,44.26
2023-05-01T15:20:18.678Z,44.22
2023-05-01T15:22:45.169Z,44.44
2023-05-01T15:25:11.638Z,43.83
2023-05-01T15:27:38.048Z,44.31
2023-05-01T15:30:04.475Z,44.60
2023-05-01T15:32:30.961Z,44.29
2023-05-01T15:34:57.485Z,44.29
2023-05-01T15:37:23.699Z,44.77
2023-05-01T15:39:50.110Z,44.24
2023-05-01T15:42:16.552Z,44.81
2023-05-01T15:44:43.001Z,44.81
2023-05-01T15:47:09.474Z,44.76
2023-05-01T15:49:35.745Z,44.65
2023-05-01T15:52:02.189Z,44.76
2023-05-01T15:54:28.604Z,45.08
2023-05-01T15:56:55.027Z,45.13
2023-05-01T15:59:21.580Z,45.03
2023-05-01T16:01:48.050Z,45.02
2023-05-01T16:04:14.371Z,45.53
2023-05-01T16:06:40.904Z,45.73
2023-05-01T16:09:09.874Z,46.30
2023-05-01T16:11:36.239Z,46.46
2023-05-01T16:14:02.691Z,45.96
2023-05-01T16:16:29.114Z,46.01
2023-05-01T16:18:55.933Z,46.16
2023-05-01T16:21:22.394Z,46.32
2023-05-01T16:23:48.798Z,46.53
2023-05-01T16:26:15.264Z,46.62
2023-05-01T16:28:41.708Z,46.56
2023-05-01T16:31:19.534Z,47.14
2023-05-01T16:33:34.534Z,47.32
2023-05-01T16:36:01.051Z,47.71
2023-05-01T16:38:27.420Z,47.85
2023-05-01T16:40:53.832Z,48.43
2023-05-01T16:43:20.271Z,48.88
2023-05-01T16:45:46.682Z,49.01
2023-05-01T16:48:13.153Z,49.08
2023-05-01T16:50:39.566Z,49.42
2023-05-01T16:53:05.948Z,49.14
2023-05-01T16:55:32.371Z,49.64
2023-05-01T16:57:58.837Z,49.79
2023-05-01T17:00:25.258Z,50.10
2023-05-01T17:02:51.822Z,50.54
2023-05-01T17:05:18.141Z,50.74
2023-05-01T17:07:44.529Z,50.98
2023-05-01T17:10:10.955Z,51.61
2023-05-01T17:12:37.398Z,51.80
2023-05-01T17:15:03.816Z,52.48
2023-05-01T17:17:30.276Z,52.87
2023-05-01T17:19:56.959Z,52.92
2023-05-01T17:22:23.321Z,52.94
2023-05-01T17:24:49.774Z,53.51
2023-05-01T17:27:16.262Z,53.63
2023-05-01T17:29:42.812Z,53.76
2023-05-01T17:32:09.282Z,53.99
2023-05-01T17:34:35.626Z,53.97
2023-05-01T17:37:02.018Z,53.94
2023-05-01T17:39:28.495Z,53.90
2023-05-01T17:41:54.898Z,54.14
2023-05-01T17:44:21.379Z,54.32
2023-05-01T17:46:47.790Z,54.60
2023-05-01T17:49:14.259Z,54.58
2023-05-01T17:51:40.980Z,55.05
2023-05-01T17:54:07.376Z,55.17
2023-05-01T17:56:33.844Z,55.14
2023-05-01T17:59:00.291Z,55.53
2023-05-01T18:01:27.036Z,55.54
2023-05-01T18:03:53.604Z,55.81
2023-05-01T18:06:19.868Z,56.18
2023-05-01T18:08:46.211Z,56.13
2023-05-01T18:11:12.639Z,56.46
2023-05-01T18:13:39.034Z,56.42
2023-05-01T18:16:05.528Z,56.89
2023-05-01T18:18:32.088Z,57.21
2023-05-01T18:20:58.691Z,57.12
2023-05-01T18:23:25.138Z,57.58
2023-05-01T18:25:51.682Z,58.14
2023-05-01T18:28:18.791Z,58.35
2023-05-01T18:30:45.289Z,58.57
2023-05-01T18:33:11.841Z,58.50
2023-05-01T18:35:38.337Z,58.70
2023-05-01T18:38:04.741Z,58.71
2023-05-01T18:40:31.210Z,59.18
2023-05-01T18:42:57.771Z,59.24
2023-05-01T18:45:24.200Z,60.08
2023-05-01T18:47:50.843Z,61.63
2023-05-01T18:50:17.168Z,62.26
2023-05-01T18:52:43.556Z,62.48
2023-05-01T18:55:10.001Z,63.46
2023-05-01T18:57:36.401Z,63.30
2023-05-01T19:00:02.930Z,64.05
2023-05-01T19:02:29.407Z,64.51
2023-05-01T19:04:57.863Z,64.84
2023-05-01T19:07:22.281Z,65.67
2023-05-01T19:09:48.767Z,65.90
2023-05-01T19:12:15.168Z,66.22
2023-05-01T19:14:41.551Z,66.74
2023-05-01T19:17:08.092Z,67.35
2023-05-01T19:19:34.827Z,67.34
2023-05-01T19:22:01.339Z,67.45
2023-05-01T19:24:28.065Z,67.53
2023-05-01T19:26:54.442Z,67.69
2023-05-01T19:29:21.209Z,68.22
2023-05-01T19:31:47.716Z,68.26
2023-05-01T19:34:14.071Z,68.18
2023-05-01T19:36:40.518Z,68.14
2023-05-01T19:39:07.116Z,67.97
2023-05-01T19:41:33.539Z,67.87
2023-05-01T19:44:00.136Z,67.94
2023-05-01T19:46:26.588Z,67.63
2023-05-01T19:48:53.068Z,67.67
2023-05-01T19:51:19.439Z,67.73
2023-05-01T19:53:45.867Z,67.94
2023-05-01T19:56:12.265Z,67.74
2023-05-01T19:58:38.633Z,67.52
2023-05-01T20:01:06.244Z,67.56
2023-05-01T20:03:32.735Z,67.50
2023-05-01T20:05:59.232Z,67.49
2023-05-01T20:08:25.558Z,67.42
2023-05-01T20:10:52.054Z,67.47
2023-05-01T20:13:18.482Z,67.70
2023-05-01T20:15:44.951Z,67.76
2023-05-01T20:18:11.426Z,67.91
2023-05-01T20:20:38.059Z,68.31
2023-05-01T20:23:04.497Z,68.00
2023-05-01T20:25:30.924Z,67.80
2023-05-01T20:27:57.364Z,67.85
2023-05-01T20:30:23.755Z,68.04
2023-05-01T20:32:50.177Z,67.96
2023-05-01T20:35:16.652Z,67.98
2023-05-01T20:37:43.120Z,68.15
2023-05-01T20:40:09.509Z,67.98
2023-05-01T20:42:35.996Z,68.27
2023-05-01T20:45:07.955Z,68.67
2023-05-01T20:47:34.351Z,69.15
2023-05-01T20:50:00.889Z,69.21
2023-05-01T20:52:27.125Z,69.48
2023-05-01T20:54:53.619Z,69.58
2023-05-01T20:57:20.028Z,69.86
2023-05-01T20:59:49.479Z,69.93
2023-05-01T21:02:15.924Z,70.07
2023-05-01T21:04:42.308Z,70.20
2023-05-01T21:07:08.745Z,70.86
2023-05-01T21:09:35.115Z,71.01
2023-05-01T21:12:01.522Z,71.20
2023-05-01T21:14:27.918Z,71.57
2023-05-01T21:16:54.363Z,71.84
2023-05-01T21:19:20.811Z,72.39
2023-05-01T21:21:47.186Z,72.25
2023-05-01T21:24:13.555Z,72.27
2023-05-01T21:26:40.060Z,72.64
2023-05-01T21:29:06.493Z,73.11
2023-05-01T21:31:33.038Z,73.15
2023-05-01T21:33:59.430Z,73.54
2023-05-01T21:36:25.809Z,73.63
2023-05-01T21:38:52.228Z,73.62
2023-05-01T21:41:18.679Z,73.85
2023-05-01T21:43:45.129Z,74.13
2023-05-01T21:46:11.773Z,74.36
2023-05-01T21:48:38.195Z,74.35
2023-05-01T21:51:04.822Z,74.80
2023-05-01T21:53:31.217Z,74.59
2023-05-01T21:55:57.728Z,74.87
2023-05-01T21:58:24.093Z,74.68
2023-05-01T22:00:50.575Z,74.96
2023-05-01T22:03:17.100Z,75.27
2023-05-01T22:05:43.354Z,75.23
2023-05-01T22:08:09.838Z,75.33
2023-05-01T22:10:36.345Z,75.32
2023-05-01T22:13:02.724Z,75.61
2023-05-01T22:15:29.227Z,75.90
2023-05-01T22:17:55.669Z,76.07
2023-05-01T22:20:22.161Z,75.87
2023-05-01T22:22:48.581Z,76.12
2023-05-01T22:25:15.013Z,76.24
2023-05-01T22:27:41.685Z,76.51
2023-05-01T22:30:08.157Z,76.59
2023-05-01T22:32:34.633Z,76.68
2023-05-01T22:35:01.037Z,76.92
2023-05-01T22:37:32.352Z,76.86
2023-05-01T22:40:01.215Z,76.80
2023-05-01T22:42:28.777Z,76.45
2023-05-01T22:44:57.281Z,76.42
2023-05-01T22:47:23.722Z,76.37
2023-05-01T22:49:50.177Z,76.22
2023-05-01T22:52:19.856Z,76.22
2023-05-01T22:54:46.352Z,76.08
2023-05-01T22:57:15.182Z,76.14
2023-05-01T22:59:42.023Z,76.17
2023-05-01T23:02:08.802Z,76.39
2023-05-01T23:04:35.901Z,76.38
2023-05-01T23:07:02.307Z,76.69
2023-05-01T23:09:28.749Z,76.33
2023-05-01T23:11:55.234Z,76.20
2023-05-01T23:14:21.745Z,76.66
2023-05-01T23:16:48.171Z,76.77
2023-05-01T23:19:14.605Z,77.10
2023-05-01T23:21:41.137Z,77.29
2023-05-01T23:24:07.659Z,77.22
2023-05-01T23:26:34.072Z,77.39
2023-05-01T23:29:00.608Z,77.25
2023-05-01T23:31:27.120Z,77.69
2023-05-01T23:33:53.822Z,77.82
2023-05-01T23:36:20.386Z,77.87
2023-05-01T23:38:47.659Z,78.17
2023-05-01T23:41:14.235Z,78.31
2023-05-01T23:43:41.045Z,78.35
2023-05-01T23:46:07.764Z,78.39
2023-05-01T23:48:34.633Z,79.24
2023-05-01T23:51:02.452Z,79.43
2023-05-01T23:53:28.833Z,79.42
2023-05-01T23:55:55.284Z,79.28
2023-05-01T23:58:22.868Z,79.52
